createdAt,value
2023-04-05T00:00:28.412Z,56.3
2023-04-05T00:03:35.530Z,56.4
2023-04-05T00:06:24.851Z,58.6
2023-04-05T00:09:13.622Z,59.6
2023-04-05T00:12:03.680Z,61.1
2023-04-05T00:14:52.000Z,63.3
2023-04-05T00:17:39.520Z,61.8
2023-04-05T00:20:27.885Z,58.3
2023-04-05T00:23:15.367Z,55.7
2023-04-05T00:26:03.919Z,56.3
2023-04-05T00:28:52.542Z,59.9
2023-04-05T00:31:40.432Z,61.1
2023-04-05T00:34:28.058Z,63.4
2023-04-05T00:37:17.190Z,63.7
2023-04-05T00:40:06.775Z,59.7
2023-04-05T00:42:56.707Z,56
2023-04-05T00:45:44.287Z,57.6
2023-04-05T00:48:32.715Z,59.4
2023-04-05T00:51:21.156Z,62
2023-04-05T00:54:09.007Z,63.4
2023-04-05T00:56:58.557Z,58.9
2023-04-05T00:59:46.775Z,54.8
2023-04-05T01:02:34.222Z,57.5
2023-04-05T01:05:30.369Z,57.4
2023-04-05T01:08:23.729Z,59.1
2023-04-05T01:11:17.909Z,63.6
2023-04-05T01:14:06.769Z,61.4
2023-04-05T01:16:54.325Z,56.7
2023-04-05T01:19:42.900Z,56.4
2023-04-05T01:22:32.623Z,58.8
2023-04-05T01:26:02.726Z,60.3
2023-04-05T01:29:16.032Z,61
2023-04-05T01:32:33.180Z,61.9
2023-04-05T01:35:32.297Z,62.9
2023-04-05T01:38:25.856Z,61.1
2023-04-05T01:41:15.192Z,58.8
2023-04-05T01:44:03.198Z,57.4
2023-04-05T01:46:51.844Z,58.7
2023-04-05T01:49:39.404Z,61
2023-04-05T01:52:27.057Z,63.1
2023-04-05T01:55:14.491Z,63.1
2023-04-05T01:58:02.277Z,59
2023-04-05T02:00:51.207Z,56.2
2023-04-05T02:03:40.104Z,56.3
2023-04-05T02:06:27.692Z,58
2023-04-05T02:09:16.826Z,59.4
2023-04-05T02:12:04.642Z,61
2023-04-05T02:14:52.186Z,66.6
2023-04-05T02:17:39.720Z,63.1
2023-04-05T02:20:30.645Z,57.1
2023-04-05T02:23:19.228Z,55.6
2023-04-05T02:26:06.854Z,57.4
2023-04-05T02:28:54.520Z,59.3
2023-04-05T02:31:42.142Z,63.9
2023-04-05T02:34:29.766Z,61.7
2023-04-05T02:37:18.187Z,58
2023-04-05T02:40:06.709Z,57.9
2023-04-05T02:42:59.784Z,58.5
2023-04-05T02:45:48.683Z,58.9
2023-04-05T02:48:36.905Z,63.6
2023-04-05T02:51:24.830Z,61.6
2023-04-05T02:54:12.614Z,59.1
2023-04-05T02:57:00.829Z,55.6
2023-04-05T02:59:49.523Z,56.8
2023-04-05T03:02:37.098Z,60.9
2023-04-05T03:05:25.002Z,61.4
2023-04-05T03:08:13.458Z,60.8
2023-04-05T03:11:04.558Z,57.1
2023-04-05T03:13:53.152Z,57
2023-04-05T03:16:40.669Z,60.5
2023-04-05T03:19:28.278Z,62.4
2023-04-05T03:22:16.752Z,62.8
2023-04-05T03:25:04.531Z,57.9
2023-04-05T03:27:53.041Z,57.7
2023-04-05T03:30:40.606Z,59.5
2023-04-05T03:33:28.129Z,59.9
2023-04-05T03:36:15.604Z,63.5
2023-04-05T03:39:04.751Z,64.1
2023-04-05T03:41:54.061Z,60.7
2023-04-05T03:44:42.174Z,56
2023-04-05T03:47:29.985Z,57.9
2023-04-05T03:50:17.657Z,60.9
2023-04-05T03:53:05.347Z,62.1
2023-04-05T03:55:52.895Z,64.4
2023-04-05T03:58:40.570Z,63.3
2023-04-05T04:01:28.352Z,57.5
2023-04-05T04:04:16.074Z,58.7
2023-04-05T04:07:03.857Z,61.2
2023-04-05T04:09:51.725Z,63.2
2023-04-05T04:12:41.133Z,63.5
2023-04-05T04:15:29.532Z,60.3
2023-04-05T04:18:17.379Z,56.6
2023-04-05T04:21:05.177Z,57.2
2023-04-05T04:23:55.217Z,57.6
2023-04-05T04:26:42.667Z,61.9
2023-04-05T04:29:30.935Z,62.9
2023-04-05T04:32:23.601Z,58.7
2023-04-05T04:35:36.116Z,56.1
2023-04-05T04:38:23.699Z,57.3
2023-04-05T04:41:11.266Z,59.1
2023-04-05T04:44:02.490Z,63.4
2023-04-05T04:46:51.309Z,61.9
2023-04-05T04:49:39.361Z,56.1
2023-04-05T04:52:26.929Z,55.9
2023-04-05T04:55:14.418Z,59.3
2023-04-05T04:58:02.284Z,61.6
2023-04-05T05:00:54.622Z,62.7
2023-04-05T05:03:42.899Z,64.5
2023-04-05T05:06:30.443Z,60.5
2023-04-05T05:09:18.311Z,54.8
2023-04-05T05:12:05.824Z,56.7
2023-04-05T05:14:53.506Z,59.7
2023-04-05T05:17:41.464Z,61.7
2023-04-05T05:20:29.806Z,65.2
2023-04-05T05:23:17.654Z,60.3
2023-04-05T05:26:05.908Z,57.5
2023-04-05T05:28:53.471Z,59.6
2023-04-05T05:31:45.622Z,60.9
2023-04-05T05:34:33.096Z,61.2
2023-04-05T05:37:21.414Z,63.5
2023-04-05T05:40:16.974Z,59.2
2023-04-05T05:43:05.064Z,56.7
2023-04-05T05:45:53.170Z,59
2023-04-05T05:48:41.460Z,61
2023-04-05T05:51:28.977Z,61.9
2023-04-05T05:54:18.329Z,62.1
2023-04-05T05:57:06.257Z,64.9
2023-04-05T05:59:53.764Z,60.5
2023-04-05T06:02:41.216Z,56.3
2023-04-05T06:05:28.764Z,57.4
2023-04-05T06:08:16.287Z,59.6
2023-04-05T06:11:04.153Z,60.7
2023-04-05T06:13:52.851Z,64.8
2023-04-05T06:16:40.596Z,62.1
2023-04-05T06:19:28.157Z,57.5
2023-04-05T06:22:15.680Z,56.5
2023-04-05T06:25:03.681Z,58.8
2023-04-05T06:27:53.105Z,59.8
2023-04-05T06:30:40.895Z,61.7
2023-04-05T06:33:30.128Z,62.8
2023-04-05T06:36:17.609Z,59.5
2023-04-05T06:39:05.704Z,56.8
2023-04-05T06:41:53.468Z,57.3
2023-04-05T06:44:41.285Z,58.7
2023-04-05T06:47:30.013Z,60.2
2023-04-05T06:50:19.716Z,60.4
2023-04-05T06:53:07.408Z,61.8
2023-04-05T06:55:55.515Z,62.3
2023-04-05T06:58:44.655Z,64.1
2023-04-05T07:01:32.448Z,58.9
2023-04-05T07:04:20.350Z,55.7
2023-04-05T07:07:07.865Z,57.3
2023-04-05T07:09:55.551Z,58.9
2023-04-05T07:12:43.436Z,59.8
2023-04-05T07:15:31.245Z,61.3
2023-04-05T07:18:19.113Z,61.6
2023-04-05T07:21:06.850Z,62.8
2023-04-05T07:23:54.323Z,63
2023-04-05T07:26:45.331Z,57.1
2023-04-05T07:29:32.920Z,55.1
2023-04-05T07:32:25.265Z,55.5
2023-04-05T07:35:13.624Z,57
2023-04-05T07:38:01.785Z,58
2023-04-05T07:40:50.834Z,59.6
2023-04-05T07:43:38.509Z,59.9
2023-04-05T07:46:26.057Z,59.6
2023-04-05T07:49:14.469Z,60
2023-04-05T07:52:02.956Z,61.7
2023-04-05T07:54:51.595Z,60.3
2023-04-05T07:57:39.546Z,61.8
2023-04-05T08:00:27.097Z,58.4
2023-04-05T08:03:14.645Z,54.1
2023-04-05T08:06:02.565Z,54.3
2023-04-05T08:09:02.554Z,56.3
2023-04-05T08:11:52.936Z,57
2023-04-05T08:14:42.029Z,58.2
2023-04-05T08:17:29.505Z,60.3
2023-04-05T08:20:17.034Z,58.9
2023-04-05T08:23:04.778Z,60.9
2023-04-05T08:25:52.664Z,61
2023-04-05T08:28:40.497Z,59.2
2023-04-05T08:31:28.228Z,59.5
2023-04-05T08:34:16.063Z,60.7
2023-04-05T08:37:03.919Z,59.4
2023-04-05T08:39:52.176Z,59.6
2023-04-05T08:42:39.863Z,60.6
2023-04-05T08:45:31.319Z,60.5
2023-04-05T08:48:24.103Z,60.6
2023-04-05T08:51:13.555Z,60.5
2023-04-05T08:54:05.713Z,60.6
2023-04-05T08:56:53.492Z,60.6
2023-04-05T08:59:44.310Z,58.8
2023-04-05T09:02:32.783Z,59.2
2023-04-05T09:05:21.520Z,59.6
2023-04-05T09:08:09.477Z,57.7
2023-04-05T09:10:58.053Z,57.3
2023-04-05T09:13:45.749Z,55.4
2023-04-05T09:16:33.351Z,56.2
2023-04-05T09:19:23.574Z,54.8
2023-04-05T09:22:11.126Z,55.1
2023-04-05T09:25:03.313Z,53.1
2023-04-05T09:27:52.814Z,52.2
2023-04-05T09:30:41.321Z,51.4
2023-04-05T09:33:31.792Z,51
2023-04-05T09:36:20.487Z,52.5
2023-04-05T09:39:08.385Z,53.6
2023-04-05T09:41:56.013Z,50.3
2023-04-05T09:44:54.450Z,51.6
2023-04-05T09:47:49.949Z,55.3
2023-04-05T09:50:41.659Z,55
2023-04-05T09:53:29.556Z,53.6
2023-04-05T09:56:17.849Z,54.9
2023-04-05T09:59:05.710Z,50.9
2023-04-05T10:01:55.346Z,50
2023-04-05T10:04:42.978Z,47.3
2023-04-05T10:07:32.792Z,50.9
2023-04-05T10:10:20.935Z,50
2023-04-05T10:13:10.131Z,44.9
2023-04-05T10:15:59.032Z,45.5
2023-04-05T10:18:51.511Z,48.7
2023-04-05T10:21:39.254Z,44.3
2023-04-05T10:24:28.959Z,47.9
2023-04-05T10:27:25.238Z,45.6
2023-04-05T10:30:18.119Z,46.6
2023-04-05T10:33:09.056Z,43.9
2023-04-05T10:36:05.462Z,46
2023-04-05T10:39:04.397Z,42
2023-04-05T10:42:00.631Z,44
2023-04-05T10:44:56.412Z,43.6
2023-04-05T10:47:54.682Z,45.1
2023-04-05T10:50:51.619Z,47.8
2023-04-05T10:53:41.375Z,47.5
2023-04-05T10:56:30.764Z,46.8
2023-04-05T10:59:18.704Z,48.1
2023-04-05T11:02:07.086Z,45.4
2023-04-05T11:04:55.531Z,45.9
2023-04-05T11:07:49.500Z,46.6
2023-04-05T11:10:41.355Z,44.1
2023-04-05T11:13:38.581Z,46.7
2023-04-05T11:16:38.356Z,41.9
2023-04-05T11:19:39.269Z,44.6
2023-04-05T11:22:36.789Z,41.9
2023-04-05T11:25:24.387Z,42.1
2023-04-05T11:28:12.328Z,38.7
2023-04-05T11:31:09.699Z,35.9
2023-04-05T11:34:00.841Z,35.9
2023-04-05T11:36:54.934Z,39.6
2023-04-05T11:39:42.477Z,37.5
2023-04-05T11:42:30.197Z,39.9
2023-04-05T11:45:17.926Z,38.2
2023-04-05T11:48:08.571Z,38.7
2023-04-05T11:50:58.068Z,37.9
2023-04-05T11:53:46.051Z,39.5
2023-04-05T11:56:34.152Z,38.2
2023-04-05T11:59:22.512Z,38.9
2023-04-05T12:02:18.540Z,39.2
2023-04-05T12:05:07.808Z,39.4
2023-04-05T12:07:55.864Z,39.6
2023-04-05T12:10:43.523Z,42
2023-04-05T12:13:38.840Z,42.8
2023-04-05T12:16:26.892Z,43.6
2023-04-05T12:19:14.924Z,41.8
2023-04-05T12:22:02.771Z,40.4
2023-04-05T12:24:52.045Z,42.2
2023-04-05T12:27:39.850Z,42.7
2023-04-05T12:30:27.850Z,41.6
2023-04-05T12:33:22.775Z,39.1
2023-04-05T12:36:13.190Z,40.1
2023-04-05T12:39:01.166Z,37.2
2023-04-05T12:41:54.324Z,33.3
2023-04-05T12:44:43.573Z,32
2023-04-05T12:47:47.570Z,33.4
2023-04-05T12:50:36.939Z,29.5
2023-04-05T12:53:29.240Z,27.7
2023-04-05T12:56:18.072Z,27.3
2023-04-05T12:59:06.617Z,29.6
2023-04-05T13:01:54.664Z,30.6
2023-04-05T13:04:42.486Z,30.7
2023-04-05T13:07:30.215Z,31.3
2023-04-05T13:10:17.804Z,30.5
2023-04-05T13:13:07.069Z,31.4
2023-04-05T13:15:55.362Z,29.8
2023-04-05T13:18:42.951Z,31.1
2023-04-05T13:21:30.870Z,33.7
2023-04-05T13:24:18.578Z,34.4
2023-04-05T13:27:06.406Z,34.6
2023-04-05T13:29:54.017Z,31.3
2023-04-05T13:32:42.045Z,30.9
2023-04-05T13:35:29.812Z,29.2
2023-04-05T13:38:17.615Z,26.1
2023-04-05T13:41:06.755Z,27.4
2023-04-05T13:43:54.407Z,29.1
2023-04-05T13:46:42.130Z,28
2023-04-05T13:49:30.278Z,28.6
2023-04-05T13:52:17.792Z,29.6
2023-04-05T13:55:05.908Z,28.2
2023-04-05T13:57:54.182Z,30.9
2023-04-05T14:00:44.135Z,31.9
2023-04-05T14:03:32.055Z,29.8
2023-04-05T14:06:19.991Z,31.4
2023-04-05T14:09:07.769Z,31.1
2023-04-05T14:11:55.794Z,31.9
2023-04-05T14:14:43.679Z,29.5
2023-04-05T14:17:31.453Z,29.8
2023-04-05T14:20:19.287Z,25.7
2023-04-05T14:23:07.233Z,27.1
2023-04-05T14:25:55.027Z,26.9
2023-04-05T14:28:42.964Z,26.1
2023-04-05T14:31:30.645Z,24.5
2023-04-05T14:34:18.610Z,24.6
2023-04-05T14:37:06.127Z,23.1
2023-04-05T14:39:54.032Z,24.4
2023-04-05T14:42:49.065Z,22.3
2023-04-05T14:45:38.365Z,21.6
2023-04-05T14:48:25.934Z,19.8
2023-04-05T14:51:15.469Z,17
2023-04-05T14:54:03.641Z,16.6
2023-04-05T14:56:52.827Z,14.9
2023-04-05T14:59:40.616Z,14
2023-04-05T15:02:28.724Z,13.2
2023-04-05T15:05:16.998Z,13.9
2023-04-05T15:08:05.299Z,13.3
2023-04-05T15:10:53.668Z,12.8
2023-04-05T15:13:41.555Z,13.1
2023-04-05T15:16:29.189Z,14
2023-04-05T15:19:16.890Z,13
2023-04-05T15:22:04.913Z,12
2023-04-05T15:24:53.131Z,11.8
2023-04-05T15:27:41.653Z,11.8
2023-04-05T15:30:30.537Z,11.9
2023-04-05T15:33:18.366Z,12.7
2023-04-05T15:36:06.569Z,12.1
2023-04-05T15:38:54.946Z,13.3
2023-04-05T15:41:42.645Z,12.5
2023-04-05T15:44:31.472Z,12
2023-04-05T15:47:19.729Z,12.1
2023-04-05T15:50:08.572Z,12.2
2023-04-05T15:52:57.934Z,12
2023-04-05T15:55:45.710Z,12.3
2023-04-05T15:58:33.568Z,11.8
2023-04-05T16:01:22.306Z,12
2023-04-05T16:04:10.169Z,12.9
2023-04-05T16:06:58.077Z,12
2023-04-05T16:09:46.329Z,12
2023-04-05T16:12:34.903Z,12.3
2023-04-05T16:15:23.274Z,12.3
2023-04-05T16:18:11.201Z,12.2
2023-04-05T16:20:59.449Z,12.6
2023-04-05T16:23:48.383Z,12.9
2023-04-05T16:26:37.305Z,12.7
2023-04-05T16:29:26.007Z,12.5
2023-04-05T16:32:14.012Z,13.4
2023-04-05T16:35:02.243Z,13.5
2023-04-05T16:37:51.902Z,11.7
2023-04-05T16:40:39.729Z,11
2023-04-05T16:43:28.829Z,11.7
2023-04-05T16:46:16.942Z,12.8
2023-04-05T16:49:05.157Z,12.7
2023-04-05T16:51:53.356Z,14.1
2023-04-05T16:54:41.570Z,14
2023-04-05T16:57:29.322Z,15.6
2023-04-05T17:00:17.763Z,14.5
2023-04-05T17:03:06.145Z,14.8
2023-04-05T17:05:53.829Z,15.4
2023-04-05T17:08:41.469Z,14.3
2023-04-05T17:11:29.109Z,15.7
2023-04-05T17:14:16.753Z,15.5
2023-04-05T17:17:04.982Z,17.4
2023-04-05T17:19:53.380Z,15.6
2023-04-05T17:22:41.115Z,15.8
2023-04-05T17:25:28.680Z,16.7
2023-04-05T17:28:16.218Z,16.6
2023-04-05T17:31:04.350Z,17.1
2023-04-05T17:33:52.539Z,18
2023-04-05T17:36:40.543Z,18.2
2023-04-05T17:39:29.756Z,18.2
2023-04-05T17:42:17.274Z,18.1
2023-04-05T17:45:05.285Z,17.6
2023-04-05T17:47:54.227Z,19.3
2023-04-05T17:50:42.017Z,18.9
2023-04-05T17:53:30.070Z,18.1
2023-04-05T17:56:17.625Z,19.2
2023-04-05T17:59:07.877Z,17.6
2023-04-05T18:01:55.874Z,18.3
2023-04-05T18:04:43.548Z,19.2
2023-04-05T18:07:31.294Z,20.1
2023-04-05T18:10:21.098Z,18.5
2023-04-05T18:13:08.834Z,19.8
2023-04-05T18:15:57.030Z,19.5
2023-04-05T18:18:45.357Z,19.8
2023-04-05T18:21:33.053Z,19.1
2023-04-05T18:24:20.814Z,18.1
2023-04-05T18:27:08.802Z,18.7
2023-04-05T18:29:57.009Z,18.4
2023-04-05T18:32:45.104Z,18.5
2023-04-05T18:35:33.126Z,18.8
2023-04-05T18:38:21.401Z,19.4
2023-04-05T18:41:08.923Z,19
2023-04-05T18:43:57.212Z,19.9
2023-04-05T18:46:44.786Z,18.8
2023-04-05T18:49:33.522Z,20
2023-04-05T18:52:21.774Z,20.1
2023-04-05T18:55:11.785Z,19
2023-04-05T18:58:00.153Z,19.2
2023-04-05T19:00:49.107Z,19.5
2023-04-05T19:03:36.812Z,18.5
2023-04-05T19:06:24.522Z,18.9
2023-04-05T19:09:12.717Z,20.1
2023-04-05T19:12:02.067Z,20.6
2023-04-05T19:14:51.445Z,20
2023-04-05T19:17:39.043Z,20.6
2023-04-05T19:20:26.641Z,20.5
2023-04-05T19:23:14.240Z,19.8
2023-04-05T19:26:02.164Z,20.1
2023-04-05T19:28:51.484Z,19.5
2023-04-05T19:31:39.763Z,19.6
2023-04-05T19:34:27.764Z,20.2
2023-04-05T19:37:16.504Z,19.6
2023-04-05T19:40:04.534Z,19.4
2023-04-05T19:42:55.335Z,20.4
2023-04-05T19:45:44.238Z,20.1
2023-04-05T19:48:41.598Z,19.6
2023-04-05T19:51:30.584Z,20.1
2023-04-05T19:54:18.378Z,20.8
2023-04-05T19:57:07.183Z,19.6
2023-04-05T19:59:56.345Z,20
2023-04-05T20:02:44.000Z,19.9
2023-04-05T20:05:31.791Z,20.8
2023-04-05T20:08:57.689Z,20.5
2023-04-05T20:11:49.938Z,20.3
2023-04-05T20:14:42.517Z,19.9
2023-04-05T20:17:31.055Z,20.5
2023-04-05T20:20:19.864Z,19.9
2023-04-05T20:23:07.705Z,20.5
2023-04-05T20:25:56.536Z,20.7
2023-04-05T20:28:44.926Z,20.1
2023-04-05T20:31:39.653Z,20.5
2023-04-05T20:34:28.746Z,20.4
2023-04-05T20:37:18.945Z,20.2
2023-04-05T20:40:06.989Z,20.5
2023-04-05T20:42:56.528Z,20.2
2023-04-05T20:45:44.619Z,20.8
2023-04-05T20:48:32.498Z,20.4
2023-04-05T20:51:21.493Z,21.6
2023-04-05T20:54:09.508Z,20.3
2023-04-05T20:56:57.320Z,20.5
2023-04-05T20:59:44.864Z,20.5
2023-04-05T21:02:32.557Z,20.4
2023-04-05T21:05:20.684Z,20.4
2023-04-05T21:08:08.333Z,20.5
2023-04-05T21:10:56.035Z,20.9
2023-04-05T21:13:44.064Z,20.7
2023-04-05T21:16:32.127Z,21
2023-04-05T21:19:19.731Z,21.3
2023-04-05T21:22:07.339Z,20.5
2023-04-05T21:24:55.066Z,20.6
2023-04-05T21:27:42.748Z,20.6
2023-04-05T21:30:30.544Z,20.9
2023-04-05T21:33:18.726Z,20.1
2023-04-05T21:36:06.510Z,20.6
2023-04-05T21:38:54.359Z,20.1
2023-04-05T21:41:41.909Z,20.6
2023-04-05T21:44:29.556Z,20.2
2023-04-05T21:47:17.242Z,20.8
2023-04-05T21:50:05.501Z,20.7
2023-04-05T21:52:55.918Z,20.3
2023-04-05T21:55:43.422Z,20.3
2023-04-05T21:58:31.115Z,20.7
2023-04-05T22:01:18.744Z,21
2023-04-05T22:04:06.454Z,21.2
2023-04-05T22:06:53.905Z,20.8
2023-04-05T22:09:41.444Z,20.9
2023-04-05T22:12:29.070Z,21.3
2023-04-05T22:15:16.817Z,21.3
2023-04-05T22:18:04.647Z,21.2
2023-04-05T22:20:52.985Z,21.5
2023-04-05T22:23:42.826Z,21.2
2023-04-05T22:26:31.168Z,21.3
2023-04-05T22:29:18.746Z,21.7
2023-04-05T22:32:06.594Z,21.3
2023-04-05T22:34:54.869Z,22.1
2023-04-05T22:37:42.526Z,21.9
2023-04-05T22:40:30.272Z,21.6
2023-04-05T22:43:17.803Z,21.5
2023-04-05T22:46:05.588Z,22.8
2023-04-05T22:48:53.317Z,24.4
2023-04-05T22:51:40.923Z,28.4
2023-04-05T22:54:28.514Z,32.4
2023-04-05T22:57:15.999Z,35.7
2023-04-05T23:00:04.097Z,40.9
2023-04-05T23:02:55.325Z,42.8
2023-04-05T23:05:42.995Z,45.5
2023-04-05T23:08:30.474Z,47.7
2023-04-05T23:11:20.026Z,50.7
2023-04-05T23:14:07.868Z,50.8
2023-04-05T23:16:55.909Z,51.7
2023-04-05T23:19:43.467Z,51.3
2023-04-05T23:22:31.079Z,51.4
2023-04-05T23:25:20.561Z,54.5
2023-04-05T23:28:08.376Z,52.5
2023-04-05T23:30:55.798Z,53.8
2023-04-05T23:33:43.298Z,53.9
2023-04-05T23:36:31.407Z,56.9
2023-04-05T23:39:19.057Z,58
2023-04-05T23:42:06.653Z,60.1
2023-04-05T23:44:54.539Z,63.9
2023-04-05T23:47:42.184Z,55.4
2023-04-05T23:50:30.075Z,50.8
2023-04-05T23:53:17.643Z,50.4
2023-04-05T23:56:05.482Z,50.5
2023-04-05T23:58:53.609Z,51.7
